SBI769 UWKD-UUEE
Flight info
| Callsign | SBI769 |
|---|---|
| Flight time | N/A |
| Altitude | 36000 |
| Route | APTAR1H APTAR L158 DIMGI DIMGI3E |
| Aircraft | A321/M-V/N |
Departure
| Time | 2026-05-07 18:18 |
|---|---|
| Airport | Kazan International Airport (UWKD) |
Arrival
| Time | N/A |
|---|---|
| Airport | Sheremetyevo International Airport (UUEE) |
| Time | Latitude | Longitude | Altitude | Speed | Heading |
|---|---|---|---|---|---|
| 2026-05-07 17:25 | 55.60690 | 49.30015 | 420 ft | 0 kts | 35° |
| 2026-05-07 17:56 | 55.60677 | 49.30003 | 420 ft | 2 kts | 20° |
| 2026-05-07 17:56 | 55.60664 | 49.29992 | 420 ft | 2 kts | 28° |
| 2026-05-07 17:57 | 55.60650 | 49.29980 | 420 ft | 2 kts | 26° |
| 2026-05-07 17:57 | 55.60641 | 49.29972 | 420 ft | 2 kts | 26° |
| 2026-05-07 17:57 | 55.60624 | 49.29956 | 420 ft | 2 kts | 26° |
| 2026-05-07 17:57 | 55.60610 | 49.29944 | 420 ft | 2 kts | 26° |
| 2026-05-07 17:58 | 55.60597 | 49.29932 | 420 ft | 2 kts | 26° |
| 2026-05-07 17:58 | 55.60583 | 49.29920 | 420 ft | 2 kts | 26° |
| 2026-05-07 17:58 | 55.60576 | 49.29913 | 420 ft | 1 kts | 33° |
| 2026-05-07 17:58 | 55.60574 | 49.29912 | 420 ft | 0 kts | 33° |
| 2026-05-07 18:03 | 55.60586 | 49.29926 | 420 ft | 4 kts | 33° |
| 2026-05-07 18:03 | 55.60619 | 49.29942 | 420 ft | 5 kts | 348° |
| 2026-05-07 18:04 | 55.60648 | 49.29901 | 420 ft | 5 kts | 310° |
| 2026-05-07 18:04 | 55.60669 | 49.29850 | 420 ft | 4 kts | 305° |
| 2026-05-07 18:04 | 55.60694 | 49.29787 | 420 ft | 9 kts | 305° |
| 2026-05-07 18:04 | 55.60738 | 49.29675 | 420 ft | 13 kts | 304° |
| 2026-05-07 18:05 | 55.60794 | 49.29532 | 420 ft | 12 kts | 303° |
| 2026-05-07 18:05 | 55.60801 | 49.29419 | 420 ft | 10 kts | 229° |
| 2026-05-07 18:05 | 55.60743 | 49.29340 | 420 ft | 10 kts | 214° |
| 2026-05-07 18:05 | 55.60684 | 49.29269 | 420 ft | 11 kts | 214° |
| 2026-05-07 18:06 | 55.60615 | 49.29182 | 420 ft | 12 kts | 220° |
| 2026-05-07 18:06 | 55.60578 | 49.29053 | 420 ft | 12 kts | 265° |
| 2026-05-07 18:06 | 55.60582 | 49.28904 | 420 ft | 12 kts | 274° |
| 2026-05-07 18:06 | 55.60589 | 49.28746 | 420 ft | 12 kts | 274° |
| 2026-05-07 18:07 | 55.60605 | 49.28593 | 420 ft | 12 kts | 293° |
| 2026-05-07 18:07 | 55.60654 | 49.28457 | 420 ft | 13 kts | 304° |
| 2026-05-07 18:07 | 55.60710 | 49.28313 | 420 ft | 14 kts | 304° |
| 2026-05-07 18:07 | 55.60772 | 49.28155 | 420 ft | 15 kts | 304° |
| 2026-05-07 18:08 | 55.60834 | 49.27993 | 420 ft | 15 kts | 304° |
| 2026-05-07 18:08 | 55.60896 | 49.27834 | 420 ft | 15 kts | 304° |
| 2026-05-07 18:08 | 55.60959 | 49.27673 | 420 ft | 15 kts | 304° |
| 2026-05-07 18:08 | 55.61020 | 49.27514 | 420 ft | 15 kts | 304° |
| 2026-05-07 18:09 | 55.61082 | 49.27356 | 420 ft | 15 kts | 304° |
| 2026-05-07 18:09 | 55.61142 | 49.27200 | 420 ft | 15 kts | 304° |
| 2026-05-07 18:09 | 55.61202 | 49.27045 | 420 ft | 11 kts | 304° |
| 2026-05-07 18:09 | 55.61211 | 49.27018 | 420 ft | 0 kts | 296° |
| 2026-05-07 18:10 | 55.61211 | 49.27017 | 420 ft | 0 kts | 296° |
| 2026-05-07 18:10 | 55.61214 | 49.27007 | 420 ft | 1 kts | 291° |
| 2026-05-07 18:10 | 55.61216 | 49.26996 | 420 ft | 0 kts | 285° |
| 2026-05-07 18:11 | 55.61218 | 49.26979 | 420 ft | 6 kts | 272° |
| 2026-05-07 18:11 | 55.61207 | 49.26923 | 420 ft | 7 kts | 235° |
| 2026-05-07 18:11 | 55.61175 | 49.26872 | 420 ft | 0 kts | 214° |
| 2026-05-07 18:13 | 55.61172 | 49.26868 | 420 ft | 1 kts | 213° |
| 2026-05-07 18:13 | 55.61170 | 49.26865 | 420 ft | 0 kts | 213° |
| 2026-05-07 18:16 | 55.61167 | 49.26863 | 420 ft | 2 kts | 214° |
| 2026-05-07 18:16 | 55.61098 | 49.26781 | 420 ft | 16 kts | 207° |
| 2026-05-07 18:16 | 55.61041 | 49.26804 | 420 ft | 0 kts | 125° |
| 2026-05-07 18:17 | 55.60998 | 49.26913 | 420 ft | 44 kts | 124° |
| 2026-05-07 18:18 | 55.60639 | 49.27844 | 420 ft | 134 kts | 124° |
| 2026-05-07 18:18 | 55.60000 | 49.29514 | 721 ft | 181 kts | 123° |
| 2026-05-07 18:18 | 55.59293 | 49.31334 | 1699 ft | 179 kts | 123° |
| 2026-05-07 18:18 | 55.58619 | 49.33039 | 2424 ft | 172 kts | 123° |
| 2026-05-07 18:19 | 55.57905 | 49.34856 | 2766 ft | 188 kts | 123° |
| 2026-05-07 18:19 | 55.57129 | 49.36845 | 3086 ft | 204 kts | 123° |
| 2026-05-07 18:19 | 55.56308 | 49.38952 | 3502 ft | 214 kts | 123° |
| 2026-05-07 18:19 | 55.55411 | 49.41243 | 3739 ft | 234 kts | 126° |
| 2026-05-07 18:20 | 55.54158 | 49.43145 | 4102 ft | 249 kts | 154° |
| 2026-05-07 18:20 | 55.52442 | 49.43653 | 4498 ft | 261 kts | 186° |
| 2026-05-07 18:20 | 55.50740 | 49.42408 | 4883 ft | 273 kts | 220° |
| 2026-05-07 18:20 | 55.49634 | 49.39721 | 5376 ft | 277 kts | 244° |
| 2026-05-07 18:21 | 55.48680 | 49.36788 | 5944 ft | 279 kts | 227° |
| 2026-05-07 18:21 | 55.47125 | 49.34766 | 6492 ft | 280 kts | 207° |
| 2026-05-07 18:21 | 55.45364 | 49.33262 | 7041 ft | 282 kts | 203° |
| 2026-05-07 18:21 | 55.43564 | 49.31880 | 7557 ft | 285 kts | 202° |
| 2026-05-07 18:22 | 55.41831 | 49.30210 | 7870 ft | 287 kts | 221° |
| 2026-05-07 18:22 | 55.40979 | 49.28432 | 7965 ft | 288 kts | 241° |
| 2026-05-07 18:22 | 55.40445 | 49.23912 | 7971 ft | 284 kts | 276° |
| 2026-05-07 18:22 | 55.40691 | 49.20456 | 7975 ft | 284 kts | 279° |
| 2026-05-07 18:23 | 55.40987 | 49.16973 | 7974 ft | 284 kts | 279° |
| 2026-05-07 18:23 | 55.41262 | 49.13547 | 7974 ft | 284 kts | 278° |
| 2026-05-07 18:23 | 55.41519 | 49.10081 | 7973 ft | 284 kts | 278° |
| 2026-05-07 18:23 | 55.41761 | 49.06629 | 7973 ft | 284 kts | 278° |
| 2026-05-07 18:24 | 55.41997 | 49.03159 | 7974 ft | 285 kts | 277° |
| 2026-05-07 18:24 | 55.42229 | 48.99707 | 7973 ft | 285 kts | 277° |
| 2026-05-07 18:24 | 55.42462 | 48.96218 | 7973 ft | 285 kts | 277° |
| 2026-05-07 18:24 | 55.42690 | 48.92792 | 7973 ft | 285 kts | 277° |
| 2026-05-07 18:25 | 55.42919 | 48.89325 | 7973 ft | 285 kts | 277° |
| 2026-05-07 18:25 | 55.43147 | 48.85866 | 7973 ft | 285 kts | 277° |
| 2026-05-07 18:25 | 55.43373 | 48.82414 | 7973 ft | 285 kts | 277° |
| 2026-05-07 18:25 | 55.43599 | 48.78948 | 7973 ft | 285 kts | 277° |
| 2026-05-07 18:26 | 55.43825 | 48.75479 | 7973 ft | 285 kts | 277° |
| 2026-05-07 18:26 | 55.44049 | 48.72015 | 7973 ft | 285 kts | 277° |
| 2026-05-07 18:26 | 55.44271 | 48.68549 | 7973 ft | 285 kts | 277° |
| 2026-05-07 18:26 | 55.44493 | 48.65083 | 7973 ft | 285 kts | 277° |
| 2026-05-07 18:27 | 55.44714 | 48.61618 | 7973 ft | 285 kts | 277° |
| 2026-05-07 18:27 | 55.44933 | 48.58160 | 7973 ft | 285 kts | 277° |
| 2026-05-07 18:27 | 55.45198 | 48.54703 | 7973 ft | 284 kts | 281° |
| 2026-05-07 18:27 | 55.45464 | 48.52418 | 7973 ft | 284 kts | 285° |
| 2026-05-07 18:28 | 55.46186 | 48.47945 | 7973 ft | 284 kts | 288° |
| 2026-05-07 18:28 | 55.46776 | 48.44589 | 7973 ft | 284 kts | 289° |
| 2026-05-07 18:28 | 55.47355 | 48.41302 | 7973 ft | 284 kts | 289° |
| 2026-05-07 18:28 | 55.47946 | 48.37933 | 8045 ft | 288 kts | 288° |
| 2026-05-07 18:29 | 55.48532 | 48.34579 | 8644 ft | 293 kts | 288° |
| 2026-05-07 18:29 | 55.49130 | 48.31126 | 9554 ft | 290 kts | 288° |
| 2026-05-07 18:29 | 55.49719 | 48.27712 | 10312 ft | 293 kts | 288° |
| 2026-05-07 18:29 | 55.50321 | 48.24218 | 10748 ft | 307 kts | 288° |
| 2026-05-07 18:30 | 55.50952 | 48.20555 | 11271 ft | 317 kts | 288° |
| 2026-05-07 18:30 | 55.51591 | 48.16832 | 11980 ft | 319 kts | 288° |
| 2026-05-07 18:30 | 55.52229 | 48.13105 | 12677 ft | 322 kts | 288° |
| 2026-05-07 18:30 | 55.52876 | 48.09320 | 13341 ft | 325 kts | 288° |
| 2026-05-07 18:31 | 55.53534 | 48.05462 | 13992 ft | 329 kts | 288° |
| 2026-05-07 18:31 | 55.54191 | 48.01601 | 14626 ft | 332 kts | 288° |
| 2026-05-07 18:31 | 55.54858 | 47.97679 | 15250 ft | 335 kts | 288° |
| 2026-05-07 18:31 | 55.55524 | 47.93751 | 15859 ft | 338 kts | 288° |
| 2026-05-07 18:32 | 55.56204 | 47.89731 | 16469 ft | 341 kts | 288° |
| 2026-05-07 18:32 | 55.56882 | 47.85712 | 17057 ft | 344 kts | 288° |
| 2026-05-07 18:32 | 55.57565 | 47.81661 | 17633 ft | 347 kts | 288° |
| 2026-05-07 18:32 | 55.58254 | 47.77567 | 18197 ft | 350 kts | 288° |
| 2026-05-07 18:33 | 55.58943 | 47.73455 | 18746 ft | 353 kts | 288° |
| 2026-05-07 18:33 | 55.59639 | 47.69296 | 19284 ft | 356 kts | 288° |
| 2026-05-07 18:33 | 55.60352 | 47.65023 | 19824 ft | 359 kts | 288° |
| 2026-05-07 18:33 | 55.61058 | 47.60786 | 20346 ft | 361 kts | 288° |
| 2026-05-07 18:34 | 55.61773 | 47.56479 | 20866 ft | 364 kts | 288° |
| 2026-05-07 18:34 | 55.62489 | 47.52159 | 21374 ft | 367 kts | 289° |
| 2026-05-07 18:34 | 55.63178 | 47.47990 | 21853 ft | 369 kts | 289° |
| 2026-05-07 18:34 | 55.63898 | 47.43618 | 22344 ft | 372 kts | 289° |
| 2026-05-07 18:35 | 55.64623 | 47.39209 | 22826 ft | 375 kts | 289° |
| 2026-05-07 18:35 | 55.65351 | 47.34767 | 23296 ft | 377 kts | 288° |
| 2026-05-07 18:35 | 55.66091 | 47.30239 | 23760 ft | 380 kts | 288° |
| 2026-05-07 18:35 | 55.66830 | 47.25698 | 24216 ft | 383 kts | 288° |
| 2026-05-07 18:36 | 55.67566 | 47.21166 | 24659 ft | 385 kts | 288° |